createdAt,value
2023-02-16T17:01:58.228Z,112.25
2023-02-16T17:03:31.379Z,115.50
2023-02-16T17:05:03.942Z,119.75
2023-02-16T17:06:35.975Z,115.00
2023-02-16T17:08:08.820Z,119.25
2023-02-16T17:09:41.020Z,113.75
2023-02-16T17:11:25.337Z,106.00
2023-02-16T17:12:58.750Z,141.33
2023-02-16T17:14:30.679Z,137.00
2023-02-16T17:16:29.493Z,132.00
2023-02-16T17:18:01.934Z,123.67
2023-02-16T17:19:33.977Z,122.00
2023-02-16T17:21:05.980Z,104.00
2023-02-16T17:22:37.813Z,99.75
2023-02-16T17:24:10.522Z,102.25
2023-02-16T17:25:42.646Z,96.75
2023-02-16T17:27:14.575Z,100.50
2023-02-16T17:28:46.479Z,99.50
2023-02-16T17:30:18.420Z,86.50
2023-02-16T17:31:50.739Z,93.75
2023-02-16T17:33:22.747Z,102.00
2023-02-16T17:34:54.625Z,112.75
2023-02-16T17:36:26.729Z,103.25
2023-02-16T17:37:58.539Z,91.25
2023-02-16T17:39:30.660Z,97.75
2023-02-16T17:41:02.567Z,92.25
2023-02-16T17:42:34.755Z,95.50
2023-02-16T17:44:06.806Z,104.50
2023-02-16T17:45:38.794Z,98.75
2023-02-16T17:47:15.535Z,99.75
2023-02-16T17:48:51.594Z,101.25
2023-02-16T17:50:23.389Z,106.00
2023-02-16T17:51:55.374Z,92.25
2023-02-16T17:53:27.493Z,101.25
2023-02-16T17:54:59.406Z,104.75
2023-02-16T17:56:31.452Z,104.75
2023-02-16T17:58:03.368Z,112.50
2023-02-16T17:59:35.268Z,107.75
2023-02-16T18:01:07.657Z,109.25
2023-02-16T18:02:39.577Z,111.50
2023-02-16T18:04:11.592Z,116.25
2023-02-16T18:05:43.463Z,112.50
2023-02-16T18:07:20.027Z,115.25
2023-02-16T18:08:52.509Z,124.25
2023-02-16T18:10:34.020Z,120.00
2023-02-16T18:12:06.108Z,122.75
2023-02-16T18:13:38.327Z,127.67
2023-02-16T18:15:10.472Z,126.00
2023-02-16T18:16:42.526Z,136.67
2023-02-16T18:18:15.787Z,134.33
2023-02-16T18:19:47.684Z,124.33
2023-02-16T18:21:19.614Z,131.33
2023-02-16T18:22:51.448Z,129.67
2023-02-16T18:24:23.210Z,134.33
2023-02-16T18:25:55.203Z,129.67
2023-02-16T18:27:29.333Z,133.00
2023-02-16T18:29:01.332Z,122.33
2023-02-16T18:30:33.447Z,122.00
2023-02-16T18:32:05.609Z,124.00
2023-02-16T18:33:37.528Z,142.33
2023-02-16T18:35:10.438Z,135.00
2023-02-16T18:36:42.589Z,135.67
2023-02-16T18:38:14.746Z,127.33
2023-02-16T18:39:46.684Z,120.00
2023-02-16T18:41:18.689Z,123.00
2023-02-16T18:42:50.910Z,118.25
2023-02-16T18:44:22.979Z,112.50
2023-02-16T18:45:54.926Z,123.00
2023-02-16T18:47:26.909Z,124.50
2023-02-16T18:48:58.728Z,120.00
2023-02-16T18:50:30.616Z,122.25
2023-02-16T18:52:02.521Z,116.00
2023-02-16T18:53:34.754Z,115.75
2023-02-16T18:55:07.138Z,122.75
2023-02-16T18:56:40.740Z,123.00
2023-02-16T18:58:13.639Z,121.67
2023-02-16T18:59:45.870Z,129.67
2023-02-16T19:01:31.214Z,132.33
2023-02-16T19:03:03.670Z,135.67
2023-02-16T19:04:35.892Z,127.00
2023-02-16T19:06:08.182Z,126.33
2023-02-16T19:07:40.190Z,123.67
2023-02-16T19:09:12.282Z,133.67
2023-02-16T19:10:44.202Z,158.00
2023-02-16T19:12:16.744Z,130.67
2023-02-16T19:13:48.917Z,135.33
2023-02-16T19:15:20.999Z,134.33
2023-02-16T19:16:53.019Z,131.33
2023-02-16T19:18:26.779Z,133.00
2023-02-16T19:19:58.995Z,130.67
2023-02-16T19:21:31.027Z,134.67
2023-02-16T19:23:02.855Z,134.33
2023-02-16T19:24:35.353Z,131.67
2023-02-16T19:26:11.552Z,130.67
2023-02-16T19:27:44.389Z,130.33
2023-02-16T19:29:16.602Z,130.33
2023-02-16T19:30:49.970Z,132.00
2023-02-16T19:32:22.098Z,133.33
2023-02-16T19:33:54.480Z,122.67
2023-02-16T19:35:26.450Z,145.67
2023-02-16T19:36:58.402Z,130.33
2023-02-16T19:38:30.290Z,118.33
2023-02-16T19:40:02.574Z,122.00
2023-02-16T19:41:36.415Z,119.67
2023-02-16T19:43:08.513Z,132.67
2023-02-16T19:44:40.923Z,123.67
2023-02-16T19:46:13.205Z,123.00
2023-02-16T19:47:45.136Z,130.67
2023-02-16T19:49:17.302Z,122.00
2023-02-16T19:50:49.207Z,123.00
2023-02-16T19:52:21.211Z,125.67
2023-02-16T19:53:53.222Z,124.67
2023-02-16T19:55:25.185Z,119.25
2023-02-16T19:56:57.689Z,119.50
2023-02-16T19:58:29.538Z,119.50
2023-02-16T20:00:03.309Z,156.00
2023-02-16T20:01:43.738Z,124.67
2023-02-16T20:03:15.687Z,124.75
2023-02-16T20:04:47.525Z,120.50
2023-02-16T20:06:19.418Z,111.25
2023-02-16T20:07:52.124Z,111.00
2023-02-16T20:09:24.180Z,110.75
2023-02-16T20:10:56.086Z,113.50
2023-02-16T20:12:28.862Z,111.50
2023-02-16T20:14:00.980Z,117.25
2023-02-16T20:15:32.981Z,105.75
2023-02-16T20:17:05.046Z,105.75
2023-02-16T20:18:37.544Z,110.00
2023-02-16T20:20:09.704Z,103.50
2023-02-16T20:21:44.253Z,99.75
2023-02-16T20:23:16.156Z,99.25
2023-02-16T20:24:48.001Z,99.00
2023-02-16T20:26:33.632Z,98.75
2023-02-16T20:28:05.950Z,99.75
2023-02-16T20:29:38.071Z,116.00
2023-02-16T20:31:32.969Z,202.75
2023-02-16T20:33:04.844Z,146.00
2023-02-16T20:34:36.692Z,142.33
2023-02-16T20:36:08.914Z,128.67
2023-02-16T20:37:41.234Z,128.33
2023-02-16T20:39:13.356Z,119.25
2023-02-16T20:40:45.301Z,119.00
2023-02-16T20:42:17.180Z,115.50
2023-02-16T20:43:49.314Z,128.67
2023-02-16T20:45:22.279Z,136.67
2023-02-16T20:46:54.297Z,130.00
2023-02-16T20:48:26.579Z,115.75
2023-02-16T20:49:58.487Z,110.50
2023-02-16T20:51:31.001Z,109.00
2023-02-16T20:53:02.915Z,110.75
2023-02-16T20:54:35.299Z,110.25
2023-02-16T20:56:14.914Z,115.00
2023-02-16T20:57:46.806Z,114.00
2023-02-16T20:59:18.649Z,109.25
2023-02-16T21:00:50.514Z,101.75
2023-02-16T21:02:22.514Z,106.25
2023-02-16T21:03:54.855Z,108.25
2023-02-16T21:05:27.141Z,115.50
2023-02-16T21:06:59.041Z,111.00
2023-02-16T21:08:30.980Z,113.25
2023-02-16T21:10:03.770Z,116.50
2023-02-16T21:11:35.742Z,105.00
2023-02-16T21:13:07.612Z,112.00
2023-02-16T21:14:39.568Z,246.50
2023-02-16T21:16:11.645Z,181.50
2023-02-16T21:17:43.580Z,171.75
2023-02-16T21:19:22.963Z,161.00
2023-02-16T21:20:55.376Z,142.67
2023-02-16T21:22:27.283Z,134.33
2023-02-16T21:23:59.223Z,130.67
2023-02-16T21:25:31.277Z,132.67
2023-02-16T21:27:03.206Z,128.33
2023-02-16T21:28:35.127Z,128.67
2023-02-16T21:30:07.469Z,126.00
2023-02-16T21:31:39.573Z,129.00
2023-02-16T21:33:11.631Z,129.33
2023-02-16T21:34:44.227Z,125.33
2023-02-16T21:36:18.024Z,127.33
2023-02-16T21:37:50.011Z,118.33
2023-02-16T21:39:42.422Z,130.00
2023-02-16T21:41:25.104Z,125.67
2023-02-16T21:42:57.202Z,108.00
2023-02-16T21:44:29.141Z,124.67
2023-02-16T21:46:01.608Z,118.50
2023-02-16T21:47:52.171Z,120.67
2023-02-16T21:49:24.013Z,126.33
2023-02-16T21:50:56.583Z,127.50
2023-02-16T21:52:28.422Z,115.50
2023-02-16T21:54:00.332Z,126.33
2023-02-16T21:55:50.724Z,103.00
2023-02-16T21:57:24.660Z,123.67
2023-02-16T21:58:56.907Z,122.75
2023-02-16T22:00:29.056Z,112.50
2023-02-16T22:02:00.894Z,108.25
2023-02-16T22:03:32.987Z,112.00
2023-02-16T22:05:04.888Z,110.50
2023-02-16T22:06:42.026Z,111.25
2023-02-16T22:08:14.517Z,91.75
2023-02-16T22:09:46.610Z,99.00
2023-02-16T22:11:18.531Z,103.75
2023-02-16T22:12:50.411Z,99.75
2023-02-16T22:14:22.326Z,100.75
2023-02-16T22:15:54.241Z,99.25
2023-02-16T22:17:26.068Z,94.25
2023-02-16T22:19:04.058Z,91.75
2023-02-16T22:20:36.915Z,94.50
2023-02-16T22:22:08.984Z,81.50
2023-02-16T22:23:40.849Z,87.75
2023-02-16T22:25:12.899Z,77.75
2023-02-16T22:26:45.331Z,84.25
2023-02-16T22:28:17.229Z,84.75
2023-02-16T22:29:49.081Z,83.75
2023-02-16T22:31:21.899Z,78.25
2023-02-16T22:32:53.759Z,80.25
2023-02-16T22:34:25.664Z,76.75
2023-02-16T22:35:57.545Z,68.00
2023-02-16T22:37:29.485Z,72.25
2023-02-16T22:39:01.355Z,68.80
2023-02-16T22:40:33.481Z,71.80
2023-02-16T22:42:05.380Z,70.40
2023-02-16T22:43:37.527Z,67.60
2023-02-16T22:45:09.930Z,64.00
2023-02-16T22:46:41.854Z,57.25
2023-02-16T22:48:13.689Z,61.80
2023-02-16T22:49:45.930Z,67.60
2023-02-16T22:51:17.886Z,63.50
2023-02-16T22:52:49.778Z,59.00
2023-02-16T22:54:23.296Z,57.25
2023-02-16T22:55:55.482Z,57.50
2023-02-16T22:57:27.366Z,54.75
2023-02-16T22:58:59.461Z,55.50
2023-02-16T23:00:31.363Z,52.25
2023-02-16T23:02:03.310Z,54.00
2023-02-16T23:03:35.129Z,47.25
2023-02-16T23:05:07.181Z,52.75
2023-02-16T23:06:39.064Z,53.50
2023-02-16T23:08:11.218Z,46.75
2023-02-16T23:09:43.058Z,46.75
2023-02-16T23:11:14.991Z,43.50
2023-02-16T23:12:46.887Z,46.00
2023-02-16T23:14:19.300Z,50.25
2023-02-16T23:15:51.120Z,42.50
2023-02-16T23:17:23.182Z,38.75
2023-02-16T23:18:56.342Z,39.00
2023-02-16T23:20:28.174Z,39.50
2023-02-16T23:22:00.169Z,42.00
2023-02-16T23:23:32.112Z,41.50
2023-02-16T23:25:22.720Z,38.75
2023-02-16T23:26:54.977Z,43.25
2023-02-16T23:28:26.802Z,41.75
2023-02-16T23:29:58.817Z,34.75
2023-02-16T23:31:32.620Z,39.75
2023-02-16T23:33:04.563Z,35.00
2023-02-16T23:34:36.498Z,38.25
